createdAt,value
2018-02-21T00:01:56.838Z,34.30
2018-02-21T00:04:24.321Z,31.67
2018-02-21T00:06:51.769Z,31.50
2018-02-21T00:09:19.268Z,32.53
2018-02-21T00:11:46.738Z,32.10
2018-02-21T00:14:14.185Z,32.37
2018-02-21T00:16:41.665Z,31.87
2018-02-21T00:19:09.113Z,32.30
2018-02-21T00:21:36.949Z,31.47
2018-02-21T00:24:04.909Z,31.43
2018-02-21T00:26:32.361Z,36.17
2018-02-21T00:29:00.070Z,32.23
2018-02-21T00:31:27.603Z,34.67
2018-02-21T00:33:55.225Z,37.23
2018-02-21T00:36:22.710Z,34.00
2018-02-21T00:38:50.169Z,33.97
2018-02-21T00:41:17.822Z,33.70
2018-02-21T00:43:45.265Z,33.00
2018-02-21T00:46:12.930Z,33.77
2018-02-21T00:48:40.394Z,32.90
2018-02-21T00:51:07.850Z,31.30
2018-02-21T00:53:35.317Z,30.23
2018-02-21T00:56:02.765Z,31.83
2018-02-21T00:58:30.249Z,30.80
2018-02-21T01:00:57.701Z,32.23
2018-02-21T01:03:25.146Z,31.50
2018-02-21T01:05:52.636Z,30.73
2018-02-21T01:08:20.164Z,33.17
2018-02-21T01:10:47.832Z,30.33
2018-02-21T01:13:15.309Z,32.53
2018-02-21T01:15:42.756Z,32.90
2018-02-21T01:18:10.225Z,33.50
2018-02-21T01:20:37.672Z,33.43
2018-02-21T01:23:05.158Z,33.80
2018-02-21T01:25:32.609Z,30.93
2018-02-21T01:28:00.174Z,33.30
2018-02-21T01:30:27.845Z,31.90
2018-02-21T01:32:55.294Z,31.93
2018-02-21T01:35:22.984Z,35.70
2018-02-21T01:37:50.436Z,35.63
2018-02-21T01:40:18.028Z,34.73
2018-02-21T01:42:45.560Z,31.20
2018-02-21T01:45:13.029Z,31.30
2018-02-21T01:47:40.645Z,33.00
2018-02-21T01:50:08.093Z,33.37
2018-02-21T01:52:35.544Z,31.53
2018-02-21T01:55:03.010Z,31.93
2018-02-21T01:57:30.469Z,31.70
2018-02-21T01:59:57.969Z,32.73
2018-02-21T02:02:25.418Z,32.20
2018-02-21T02:04:52.866Z,33.07
2018-02-21T02:07:20.332Z,31.30
2018-02-21T02:09:47.781Z,34.20
2018-02-21T02:12:15.437Z,32.70
2018-02-21T02:14:42.890Z,30.93
2018-02-21T02:17:10.377Z,33.77
2018-02-21T02:19:37.842Z,31.73
2018-02-21T02:22:05.289Z,32.13
2018-02-21T02:24:33.005Z,29.77
2018-02-21T02:27:00.732Z,30.87
2018-02-21T02:29:28.241Z,28.90
2018-02-21T02:31:55.710Z,29.60
2018-02-21T02:34:23.166Z,30.63
2018-02-21T02:36:50.872Z,30.97
2018-02-21T02:39:30.069Z,31.07
2018-02-21T02:41:57.564Z,30.20
2018-02-21T02:44:25.033Z,28.63
2018-02-21T02:46:52.502Z,30.53
2018-02-21T02:49:20.537Z,30.87
2018-02-21T02:51:47.998Z,30.93
2018-02-21T02:54:15.729Z,30.97
2018-02-21T02:56:43.185Z,31.13
2018-02-21T02:59:10.653Z,28.73
2018-02-21T03:01:38.117Z,27.43
2018-02-21T03:04:05.596Z,29.20
2018-02-21T03:06:33.397Z,28.10
2018-02-21T03:09:00.841Z,29.90
2018-02-21T03:11:28.289Z,28.80
2018-02-21T03:13:55.752Z,29.40
2018-02-21T03:16:23.228Z,30.53
2018-02-21T03:18:50.716Z,31.00
2018-02-21T03:21:18.182Z,30.23
2018-02-21T03:23:45.641Z,30.77
2018-02-21T03:26:13.110Z,29.50
2018-02-21T03:28:40.558Z,30.97
2018-02-21T03:31:08.222Z,29.70
2018-02-21T03:33:35.675Z,31.63
2018-02-21T03:36:03.121Z,30.17
2018-02-21T03:38:30.590Z,27.90
2018-02-21T03:40:58.038Z,30.57
2018-02-21T03:43:25.516Z,32.37
2018-02-21T03:45:52.968Z,31.30
2018-02-21T03:48:21.216Z,31.00
2018-02-21T03:50:48.741Z,30.07
2018-02-21T03:53:16.236Z,32.03
2018-02-21T03:55:43.918Z,31.03
2018-02-21T03:58:11.373Z,30.43
2018-02-21T04:00:39.345Z,31.80
2018-02-21T04:03:06.888Z,33.17
2018-02-21T04:05:34.356Z,33.37
2018-02-21T04:08:01.841Z,33.10
2018-02-21T04:10:29.289Z,32.20
2018-02-21T04:12:56.739Z,31.90
2018-02-21T04:15:24.216Z,29.60
2018-02-21T04:17:51.669Z,30.70
2018-02-21T04:20:19.355Z,31.07
2018-02-21T04:22:46.806Z,30.00
2018-02-21T04:25:14.276Z,29.10
2018-02-21T04:27:41.745Z,28.67
2018-02-21T04:30:09.202Z,31.17
2018-02-21T04:32:37.193Z,32.00
2018-02-21T04:35:04.642Z,35.70
2018-02-21T04:37:32.089Z,31.60
2018-02-21T04:39:59.565Z,31.23
2018-02-21T04:42:27.020Z,31.93
2018-02-21T04:44:54.645Z,31.27
2018-02-21T04:47:22.141Z,33.40
2018-02-21T04:49:49.593Z,29.77
2018-02-21T04:52:17.093Z,31.27
2018-02-21T04:58:12.205Z,30.67
2018-02-21T05:00:39.708Z,30.17
2018-02-21T05:03:07.193Z,28.50
2018-02-21T05:05:34.657Z,29.90
2018-02-21T05:08:02.117Z,30.83
2018-02-21T05:10:29.588Z,29.90
2018-02-21T05:12:57.060Z,30.30
2018-02-21T05:15:24.570Z,30.63
2018-02-21T05:17:52.421Z,30.23
2018-02-21T05:20:19.870Z,30.30
2018-02-21T05:22:47.338Z,33.40
2018-02-21T05:25:14.785Z,32.90
2018-02-21T05:27:42.369Z,34.53
2018-02-21T05:30:09.817Z,33.70
2018-02-21T05:32:37.296Z,31.40
2018-02-21T05:35:04.786Z,30.00
2018-02-21T05:37:32.243Z,32.13
2018-02-21T05:39:59.909Z,32.87
2018-02-21T05:42:27.436Z,29.93
2018-02-21T05:44:54.885Z,31.17
2018-02-21T05:47:22.361Z,32.00
2018-02-21T05:49:49.837Z,31.47
2018-02-21T05:52:17.469Z,31.17
2018-02-21T05:54:44.916Z,31.33
2018-02-21T05:57:12.390Z,32.30
2018-02-21T05:59:39.860Z,32.37
2018-02-21T06:02:07.312Z,34.10
2018-02-21T06:04:35.602Z,31.50
2018-02-21T06:07:03.065Z,34.67
2018-02-21T06:09:30.513Z,31.67
2018-02-21T06:11:57.993Z,34.83
2018-02-21T06:14:25.449Z,34.60
2018-02-21T06:16:52.925Z,33.53
2018-02-21T06:19:20.377Z,34.13
2018-02-21T06:21:47.826Z,33.17
2018-02-21T06:24:15.313Z,34.07
2018-02-21T06:26:42.786Z,33.73
2018-02-21T06:29:10.451Z,32.47
2018-02-21T06:31:37.937Z,35.97
2018-02-21T06:34:05.389Z,31.33
2018-02-21T06:36:32.858Z,32.43
2018-02-21T06:39:00.317Z,31.83
2018-02-21T06:41:28.048Z,33.27
2018-02-21T06:43:55.502Z,31.63
2018-02-21T06:46:22.952Z,35.57
2018-02-21T06:48:50.449Z,38.33
2018-02-21T06:51:17.909Z,31.43
2018-02-21T06:53:45.483Z,34.60
2018-02-21T06:56:12.945Z,31.67
2018-02-21T06:58:40.392Z,36.03
2018-02-21T07:01:07.893Z,32.63
2018-02-21T07:03:35.457Z,33.47
2018-02-21T07:06:03.009Z,32.73
2018-02-21T07:08:30.465Z,35.37
2018-02-21T07:10:57.916Z,33.77
2018-02-21T07:13:25.409Z,33.40
2018-02-21T07:15:52.873Z,35.13
2018-02-21T07:18:20.362Z,33.20
2018-02-21T07:20:47.847Z,31.83
2018-02-21T07:23:15.310Z,32.07
2018-02-21T07:25:42.788Z,33.90
2018-02-21T07:28:10.241Z,33.77
2018-02-21T07:30:38.113Z,34.47
2018-02-21T07:33:05.558Z,32.27
2018-02-21T07:35:33.494Z,34.80
2018-02-21T07:38:00.965Z,35.50
2018-02-21T07:40:28.413Z,33.30
2018-02-21T07:42:56.156Z,33.30
2018-02-21T07:45:23.612Z,31.30
2018-02-21T07:47:51.057Z,30.80
2018-02-21T07:50:19.626Z,30.70
2018-02-21T07:52:47.073Z,31.93
2018-02-21T07:55:14.560Z,32.97
2018-02-21T07:57:42.001Z,31.63
2018-02-21T08:00:09.449Z,35.70
2018-02-21T08:02:36.977Z,35.27
2018-02-21T08:05:04.444Z,35.27
2018-02-21T08:07:31.930Z,33.70
2018-02-21T08:09:59.381Z,31.93
2018-02-21T08:12:26.833Z,33.57
2018-02-21T08:14:54.320Z,37.13
2018-02-21T08:17:21.778Z,34.20
2018-02-21T08:19:49.484Z,35.90
2018-02-21T08:22:16.932Z,35.47
2018-02-21T08:24:44.396Z,33.87
2018-02-21T08:27:11.901Z,33.80
2018-02-21T08:29:39.353Z,33.43
2018-02-21T08:32:06.850Z,32.53
2018-02-21T08:34:34.313Z,32.17
2018-02-21T08:37:02.339Z,28.63
2018-02-21T08:39:29.832Z,29.47
2018-02-21T08:41:57.292Z,27.57
2018-02-21T08:44:25.054Z,27.90
2018-02-21T08:46:52.505Z,29.57
2018-02-21T08:49:20.298Z,25.53
2018-02-21T08:51:47.865Z,27.30
2018-02-21T08:54:15.328Z,28.67
2018-02-21T08:56:42.832Z,29.00
2018-02-21T08:59:10.285Z,26.20
2018-02-21T09:01:37.737Z,25.33
2018-02-21T09:04:05.285Z,24.20
2018-02-21T09:06:32.701Z,24.00
2018-02-21T09:09:00.200Z,26.97
2018-02-21T09:11:27.656Z,27.73
2018-02-21T09:13:55.126Z,24.37
2018-02-21T09:16:22.609Z,26.00
2018-02-21T09:18:50.066Z,25.07
2018-02-21T09:21:17.554Z,25.40
2018-02-21T09:23:45.031Z,26.10
2018-02-21T09:26:12.477Z,27.13
2018-02-21T09:28:39.961Z,27.80
2018-02-21T09:31:07.416Z,26.70
2018-02-21T09:33:35.085Z,25.70
2018-02-21T09:36:02.613Z,26.53
2018-02-21T09:38:30.065Z,23.60
2018-02-21T09:40:57.537Z,23.73
2018-02-21T09:43:25.005Z,22.67
2018-02-21T09:45:53.481Z,24.83
2018-02-21T09:48:21.937Z,24.83
2018-02-21T09:50:49.630Z,23.30
2018-02-21T09:53:17.141Z,21.10
2018-02-21T09:55:44.611Z,26.30
2018-02-21T09:58:12.317Z,23.67
2018-02-21T10:00:40.125Z,26.20
2018-02-21T10:03:07.581Z,23.20
2018-02-21T10:05:35.074Z,22.53
2018-02-21T10:08:02.518Z,22.47
2018-02-21T10:10:30.021Z,24.13
2018-02-21T10:13:02.171Z,23.13
2018-02-21T10:15:30.014Z,24.20
2018-02-21T10:17:57.489Z,23.33
2018-02-21T10:20:24.981Z,21.90
2018-02-21T10:22:52.421Z,22.20
2018-02-21T10:25:19.900Z,22.70
2018-02-21T10:27:47.626Z,24.40
2018-02-21T10:30:15.085Z,24.03
2018-02-21T10:32:45.601Z,23.37
2018-02-21T10:35:13.425Z,23.70
2018-02-21T10:37:40.904Z,25.80
2018-02-21T10:40:18.029Z,24.73
2018-02-21T10:42:45.500Z,23.37
2018-02-21T10:45:12.969Z,24.60
2018-02-21T10:47:41.041Z,22.63
2018-02-21T10:50:08.489Z,23.53
2018-02-21T10:52:36.133Z,23.40
2018-02-21T10:55:03.586Z,26.23
2018-02-21T10:57:31.048Z,25.47
2018-02-21T10:59:58.532Z,22.70
2018-02-21T11:02:25.990Z,23.20
2018-02-21T11:04:55.216Z,23.20
2018-02-21T11:07:22.645Z,24.27
2018-02-21T11:09:50.093Z,23.80
2018-02-21T11:12:17.561Z,24.63
2018-02-21T11:14:45.039Z,23.50
2018-02-21T11:17:12.533Z,24.20
2018-02-21T11:19:39.982Z,24.20
2018-02-21T11:22:07.467Z,24.10
2018-02-21T11:24:35.163Z,24.57
2018-02-21T11:27:02.613Z,24.80
2018-02-21T11:29:30.398Z,24.20
2018-02-21T11:31:57.874Z,24.90
2018-02-21T11:34:25.345Z,26.03
2018-02-21T11:36:52.828Z,25.20
2018-02-21T11:39:20.313Z,22.57
2018-02-21T11:41:47.874Z,23.03
2018-02-21T11:44:15.324Z,23.80
2018-02-21T11:46:43.180Z,24.87
2018-02-21T11:49:10.766Z,22.50
2018-02-21T11:51:38.222Z,23.07
2018-02-21T11:54:05.950Z,21.03
2018-02-21T11:56:33.399Z,22.67
2018-02-21T11:59:00.940Z,24.10
2018-02-21T12:01:28.425Z,23.80
2018-02-21T12:03:55.873Z,22.97
2018-02-21T12:06:23.500Z,23.40
2018-02-21T12:08:50.962Z,22.33
2018-02-21T12:11:18.413Z,20.80
2018-02-21T12:13:45.877Z,22.03
2018-02-21T12:16:13.353Z,21.30
2018-02-21T12:18:40.944Z,21.93
2018-02-21T12:21:08.406Z,20.73
2018-02-21T12:23:35.854Z,20.97
2018-02-21T12:26:03.322Z,22.27
2018-02-21T12:28:30.776Z,22.60
2018-02-21T12:30:58.398Z,21.63
2018-02-21T12:33:25.861Z,21.43
2018-02-21T12:35:53.316Z,18.50
2018-02-21T12:38:20.817Z,19.90
2018-02-21T12:40:53.963Z,22.27
2018-02-21T12:43:21.508Z,20.53
2018-02-21T12:45:48.965Z,20.70
2018-02-21T12:48:16.470Z,20.30
2018-02-21T12:50:43.929Z,20.70
2018-02-21T12:53:11.418Z,19.17
2018-02-21T12:55:38.877Z,19.30
2018-02-21T12:58:06.338Z,23.27
2018-02-21T13:00:34.165Z,21.63
2018-02-21T13:03:01.630Z,21.23
2018-02-21T13:05:29.096Z,21.80
2018-02-21T13:07:56.569Z,20.03
2018-02-21T13:10:24.029Z,20.93
2018-02-21T13:12:51.525Z,19.60
2018-02-21T13:15:18.979Z,19.70
2018-02-21T13:17:46.432Z,18.20
2018-02-21T13:20:14.198Z,19.80
2018-02-21T13:22:41.645Z,18.07
2018-02-21T13:25:09.147Z,20.50
2018-02-21T13:27:36.610Z,18.43
2018-02-21T13:30:04.067Z,19.63
2018-02-21T13:32:31.805Z,21.87
2018-02-21T13:34:59.266Z,18.23
2018-02-21T13:37:26.718Z,20.13
2018-02-21T13:39:54.193Z,19.60
2018-02-21T13:42:21.653Z,19.10
2018-02-21T13:44:50.265Z,21.03
2018-02-21T13:47:17.741Z,19.90
2018-02-21T13:49:45.200Z,19.60
2018-02-21T13:52:12.677Z,19.63
2018-02-21T13:54:40.134Z,20.63
2018-02-21T13:57:07.809Z,20.57
2018-02-21T13:59:35.274Z,18.07
2018-02-21T14:02:02.733Z,19.30
2018-02-21T14:04:30.210Z,21.47
2018-02-21T14:06:58.018Z,21.60
2018-02-21T14:09:25.689Z,18.30
2018-02-21T14:11:53.138Z,20.10
2018-02-21T14:14:20.593Z,18.10
2018-02-21T14:16:48.060Z,20.13
2018-02-21T14:19:15.915Z,18.43
2018-02-21T14:21:43.401Z,18.00
2018-02-21T14:24:10.870Z,19.37
2018-02-21T14:26:38.321Z,19.60
2018-02-21T14:29:05.824Z,17.00
2018-02-21T14:31:33.260Z,17.67
2018-02-21T14:34:00.979Z,18.97
2018-02-21T14:36:28.432Z,19.63
2018-02-21T14:38:55.884Z,18.50
2018-02-21T14:41:23.361Z,17.70
2018-02-21T14:43:50.809Z,19.27
2018-02-21T14:46:18.299Z,16.87
2018-02-21T14:48:45.752Z,16.80
2018-02-21T14:51:13.221Z,18.27
2018-02-21T14:53:40.694Z,14.97
2018-02-21T14:56:08.145Z,17.63
2018-02-21T14:58:35.782Z,15.07
2018-02-21T15:01:03.253Z,16.77
2018-02-21T15:03:30.710Z,18.37
2018-02-21T15:05:58.364Z,18.73
2018-02-21T15:08:25.932Z,17.87
2018-02-21T15:10:53.636Z,16.57
2018-02-21T15:13:21.102Z,16.50
2018-02-21T15:15:48.554Z,18.73
2018-02-21T15:18:16.026Z,16.33
2018-02-21T15:20:43.486Z,17.47
2018-02-21T15:23:10.982Z,16.93
2018-02-21T15:25:38.446Z,17.10
2018-02-21T15:28:05.906Z,16.90
2018-02-21T15:30:33.381Z,15.73
2018-02-21T15:33:00.826Z,17.40
2018-02-21T15:35:28.301Z,17.33
2018-02-21T15:37:55.781Z,17.63
2018-02-21T15:40:23.245Z,17.30
2018-02-21T15:42:50.725Z,16.97
2018-02-21T15:45:18.226Z,16.63
2018-02-21T15:47:45.695Z,18.53
2018-02-21T15:50:13.162Z,17.37
2018-02-21T15:52:41.502Z,17.63
2018-02-21T15:55:08.978Z,17.90
2018-02-21T15:57:36.438Z,17.17
2018-02-21T16:00:03.918Z,16.23
2018-02-21T16:02:31.376Z,19.67
2018-02-21T16:04:58.853Z,15.93
2018-02-21T16:07:26.350Z,16.63
2018-02-21T16:09:53.805Z,17.27
2018-02-21T16:12:21.290Z,17.43
2018-02-21T16:14:48.777Z,17.03
2018-02-21T16:17:16.257Z,18.60
2018-02-21T16:19:43.745Z,18.47
2018-02-21T16:22:11.201Z,18.60
2018-02-21T16:24:38.646Z,17.77
2018-02-21T16:27:06.150Z,17.70
2018-02-21T16:29:33.702Z,17.80
2018-02-21T16:32:01.206Z,18.83
2018-02-21T16:34:28.686Z,18.20
2018-02-21T16:36:56.134Z,16.90
2018-02-21T16:39:23.830Z,16.20
2018-02-21T16:41:51.361Z,19.73
2018-02-21T16:44:18.809Z,17.50
2018-02-21T16:46:46.262Z,18.00
2018-02-21T16:49:13.968Z,18.73
2018-02-21T16:51:41.841Z,18.30
2018-02-21T16:54:14.866Z,17.60
2018-02-21T16:56:42.469Z,17.33
2018-02-21T16:59:09.920Z,18.10
2018-02-21T17:01:37.421Z,16.93
2018-02-21T17:04:04.892Z,16.47
2018-02-21T17:06:32.341Z,17.33
2018-02-21T17:08:59.969Z,19.00
2018-02-21T17:11:27.445Z,17.20
2018-02-21T17:13:55.424Z,17.10
2018-02-21T17:16:23.189Z,17.10
2018-02-21T17:18:50.648Z,18.87
2018-02-21T17:21:18.097Z,18.20
2018-02-21T17:23:45.580Z,16.63
2018-02-21T17:26:13.092Z,18.20
2018-02-21T17:28:40.864Z,19.20
2018-02-21T17:31:08.344Z,16.60
2018-02-21T17:33:35.796Z,18.47
2018-02-21T17:36:03.290Z,18.67
2018-02-21T17:38:30.736Z,18.27
2018-02-21T17:41:03.977Z,16.47
2018-02-21T17:43:31.428Z,18.37
2018-02-21T17:45:58.873Z,17.43
2018-02-21T17:48:26.358Z,19.83
2018-02-21T17:50:53.828Z,19.00
2018-02-21T17:53:21.481Z,18.90
2018-02-21T17:55:49.006Z,19.73
2018-02-21T17:58:16.458Z,17.07
2018-02-21T18:00:44.328Z,19.43
2018-02-21T18:03:11.790Z,19.80
2018-02-21T18:05:39.458Z,19.40
2018-02-21T18:08:06.904Z,18.23
2018-02-21T18:10:34.373Z,18.63
2018-02-21T18:13:01.874Z,19.17
2018-02-21T18:15:29.371Z,18.10
2018-02-21T18:17:56.856Z,17.83
2018-02-21T18:20:24.310Z,17.07
2018-02-21T18:22:51.761Z,17.00
2018-02-21T18:25:19.237Z,17.33
2018-02-21T18:27:46.715Z,16.60
2018-02-21T18:30:14.200Z,19.13
2018-02-21T18:32:41.673Z,19.20
2018-02-21T18:35:09.138Z,15.43
2018-02-21T18:37:36.615Z,17.20
2018-02-21T18:40:04.069Z,16.77
2018-02-21T18:42:31.994Z,17.60
2018-02-21T18:44:59.690Z,17.67
2018-02-21T18:47:27.911Z,15.80
2018-02-21T18:49:55.397Z,17.57
2018-02-21T18:52:22.888Z,15.13
2018-02-21T18:54:50.577Z,15.13
2018-02-21T18:57:18.021Z,17.80
2018-02-21T18:59:45.557Z,17.57
2018-02-21T19:02:13.033Z,16.60
2018-02-21T19:04:40.477Z,13.97
2018-02-21T19:07:08.337Z,13.77
2018-02-21T19:09:35.797Z,14.40
2018-02-21T19:12:03.266Z,14.43
2018-02-21T19:14:30.745Z,14.10
2018-02-21T19:16:58.206Z,14.20
2018-02-21T19:19:25.689Z,13.03
2018-02-21T19:21:53.137Z,11.33
2018-02-21T19:24:20.585Z,12.60
2018-02-21T19:26:48.061Z,13.00
2018-02-21T19:29:15.512Z,13.03
2018-02-21T19:31:43.143Z,12.63
2018-02-21T19:34:10.661Z,14.73
2018-02-21T19:36:38.113Z,12.77
2018-02-21T19:39:05.610Z,13.23
2018-02-21T19:41:33.069Z,12.73
2018-02-21T19:44:00.888Z,12.63
2018-02-21T19:46:28.721Z,12.40
2018-02-21T19:48:56.171Z,14.03
2018-02-21T19:51:23.656Z,13.47
2018-02-21T19:53:51.106Z,13.93
2018-02-21T19:56:18.877Z,14.90
2018-02-21T19:58:46.342Z,13.20
2018-02-21T20:01:13.789Z,10.97
2018-02-21T20:03:41.265Z,12.77
2018-02-21T20:06:08.722Z,14.07
2018-02-21T20:08:36.225Z,14.10
2018-02-21T20:11:03.689Z,14.67
2018-02-21T20:13:31.142Z,13.93
2018-02-21T20:15:58.625Z,12.87
2018-02-21T20:18:26.072Z,13.03
2018-02-21T20:20:53.881Z,15.63
2018-02-21T20:23:21.378Z,15.17
2018-02-21T20:25:48.830Z,13.17
2018-02-21T20:28:16.314Z,14.20
2018-02-21T20:30:43.816Z,13.40
2018-02-21T20:33:12.065Z,13.57
2018-02-21T20:35:39.539Z,16.27
2018-02-21T20:38:07.017Z,16.53
2018-02-21T20:40:34.490Z,16.97
2018-02-21T20:43:01.937Z,15.67
2018-02-21T20:45:29.882Z,17.80
2018-02-21T20:47:57.329Z,15.97
2018-02-21T20:50:24.782Z,16.40
2018-02-21T20:52:52.253Z,17.33
2018-02-21T20:55:19.706Z,17.00
2018-02-21T20:57:47.438Z,19.90
2018-02-21T21:00:14.886Z,19.67
2018-02-21T21:02:42.497Z,20.77
2018-02-21T21:05:09.981Z,19.83
2018-02-21T21:07:37.892Z,20.43
2018-02-21T21:10:05.706Z,18.70
2018-02-21T21:12:33.166Z,20.00
2018-02-21T21:15:00.624Z,21.47
2018-02-21T21:17:29.973Z,23.40
2018-02-21T21:19:57.707Z,21.97
2018-02-21T21:22:25.626Z,20.40
2018-02-21T21:24:53.081Z,22.30
2018-02-21T21:27:20.533Z,24.40
2018-02-21T21:29:48.017Z,23.57
2018-02-21T21:32:15.510Z,24.10
2018-02-21T21:34:43.190Z,22.87
2018-02-21T21:37:10.643Z,21.77
2018-02-21T21:39:38.111Z,21.97
2018-02-21T21:42:05.581Z,25.70
2018-02-21T21:44:33.052Z,22.60
2018-02-21T21:47:01.237Z,23.77
2018-02-21T21:49:32.867Z,22.83
2018-02-21T21:51:56.160Z,22.33
2018-02-21T21:54:23.636Z,23.13
2018-02-21T21:56:51.081Z,24.03
2018-02-21T21:59:18.590Z,25.90
2018-02-21T22:01:46.037Z,22.50
2018-02-21T22:04:13.489Z,23.53
2018-02-21T22:06:41.069Z,25.47
2018-02-21T22:09:08.534Z,22.13
2018-02-21T22:11:36.305Z,22.33
2018-02-21T22:14:04.047Z,25.83
2018-02-21T22:16:31.831Z,24.33
2018-02-21T22:18:59.613Z,23.97
2018-02-21T22:21:27.061Z,23.83
2018-02-21T22:23:54.708Z,22.90
2018-02-21T22:26:22.164Z,23.60
2018-02-21T22:28:49.636Z,23.37
2018-02-21T22:31:17.132Z,24.03
2018-02-21T22:33:44.581Z,22.20
2018-02-21T22:36:12.052Z,22.87
2018-02-21T22:38:39.525Z,23.73
2018-02-21T22:41:06.981Z,22.47
2018-02-21T22:43:34.449Z,25.17
2018-02-21T22:46:01.944Z,23.60
2018-02-21T22:48:29.609Z,23.80
2018-02-21T22:50:57.057Z,23.93
2018-02-21T22:53:24.752Z,25.90
2018-02-21T22:55:52.278Z,25.73
2018-02-21T22:58:19.738Z,22.17
2018-02-21T23:00:47.239Z,23.50
2018-02-21T23:03:14.690Z,23.20
2018-02-21T23:05:42.960Z,22.37
2018-02-21T23:08:10.436Z,23.40
2018-02-21T23:10:38.116Z,23.80
2018-02-21T23:13:05.657Z,22.77
2018-02-21T23:15:33.109Z,22.47
2018-02-21T23:18:00.569Z,22.20
2018-02-21T23:20:28.045Z,22.90
2018-02-21T23:22:55.489Z,23.50
2018-02-21T23:25:22.973Z,21.73
2018-02-21T23:27:50.420Z,22.17
2018-02-21T23:30:17.877Z,22.40
2018-02-21T23:32:45.354Z,22.20
2018-02-21T23:35:12.805Z,20.63
2018-02-21T23:37:40.649Z,21.30
2018-02-21T23:40:08.120Z,22.10
2018-02-21T23:42:35.614Z,18.27
2018-02-21T23:45:03.097Z,19.73
2018-02-21T23:47:30.577Z,22.07
2018-02-21T23:49:58.297Z,19.73
2018-02-21T23:52:26.128Z,22.60
2018-02-21T23:54:53.596Z,22.60
2018-02-21T23:57:21.069Z,20.70
2018-02-21T23:59:48.547Z,18.90
